Terminal Aerodrome Forecast
Issued by NWS Jackson, MS

Home | Current Version | Previous Version | Text Only | Print | Product List | Glossary On
Versions: 1 2 3 4 5 6 7 8 9 10 11 12 13 14 15 16 17 18 19 20 21 22 23 24 25 26
000
FTUS44 KJAN 170603 RRA
TAFGWO
TAF
KGWO 170603Z 1706/1806 20004KT P6SM SCT025 OVC035
     FM170700 17005KT P6SM VCSH BKN025
     FM171700 20010KT P6SM VCSH BKN015
     FM172000 21009KT P6SM BKN007
     FM180400 29002KT 4SM BR OVC015=

USA.gov is the U.S. government's official web portal to all federal, state and local government web resources and services.